Time;durP1;ratioP1;P1;durP2;ratioP2;P2;SDS_P1;SDS_P2;PMS_P1;PMS_P2;Temp;Humidity;BMP_temperature;BMP_pressure;BME280_temperature;BME280_humidity;BME280_pressure;Samples;Min_cycle;Max_cycle;Signal;HPM_P1;HPM_P2
2023/07/30 00:00:44;;;;;;;19.47;3.00;;;;;;;;;;5113594;28;20019;-26
2023/07/30 00:03:09;;;;;;;15.63;3.10;;;;;;;;;;5113918;28;20345;-31
2023/07/30 00:05:34;;;;;;;14.20;2.85;;;;;;;;;;5114178;28;20258;-26
2023/07/30 00:07:59;;;;;;;13.60;2.67;;;;;;;;;;5114541;28;20034;-26
2023/07/30 00:10:25;;;;;;;14.37;3.30;;;;;;;;;;5114205;28;20020;-26
2023/07/30 00:12:50;;;;;;;17.07;2.93;;;;;;;;;;5114480;28;20242;-27
2023/07/30 00:15:15;;;;;;;18.23;3.33;;;;;;;;;;5095718;28;20615;-27
2023/07/30 00:17:40;;;;;;;18.88;3.28;;;;;;;;;;5114120;28;20261;-26
2023/07/30 00:20:07;;;;;;;19.15;3.08;;;;;;;;;;5114030;28;20011;-27
2023/07/30 00:22:32;;;;;;;14.93;2.67;;;;;;;;;;5113736;28;20016;-27
2023/07/30 00:24:57;;;;;;;15.23;2.67;;;;;;;;;;5113541;28;20019;-27
2023/07/30 00:27:22;;;;;;;15.53;3.63;;;;;;;;;;5113847;28;20016;-26
2023/07/30 00:29:48;;;;;;;10.90;2.75;;;;;;;;;;5113012;28;20262;-27
2023/07/30 00:32:16;;;;;;;14.93;2.57;;;;;;;;;;5113477;28;20019;-27
2023/07/30 00:34:42;;;;;;;20.17;3.20;;;;;;;;;;5113646;28;20651;-27
2023/07/30 00:37:07;;;;;;;14.57;2.77;;;;;;;;;;5113471;28;20015;-27
2023/07/30 00:39:32;;;;;;;13.03;2.57;;;;;;;;;;5112891;28;20047;-27
2023/07/30 00:41:57;;;;;;;18.30;2.90;;;;;;;;;;5112559;28;20107;-27
2023/07/30 00:44:22;;;;;;;14.77;2.70;;;;;;;;;;5113593;28;20258;-27
2023/07/30 00:46:48;;;;;;;11.73;2.65;;;;;;;;;;5113892;28;20020;-26
2023/07/30 00:49:13;;;;;;;11.45;2.58;;;;;;;;;;5113760;28;20019;-27
2023/07/30 00:51:38;;;;;;;11.60;2.13;;;;;;;;;;5113832;28;20015;-27
2023/07/30 00:54:03;;;;;;;15.17;2.40;;;;;;;;;;5113503;28;20019;-26
2023/07/30 00:56:29;;;;;;;11.52;2.67;;;;;;;;;;5113419;28;20253;-27
2023/07/30 00:58:55;;;;;;;14.98;2.72;;;;;;;;;;5113759;28;20047;-26
2023/07/30 01:01:20;;;;;;;14.82;2.90;;;;;;;;;;5113443;28;20487;-26
2023/07/30 01:03:45;;;;;;;15.35;2.83;;;;;;;;;;5113630;28;20125;-27
2023/07/30 01:06:10;;;;;;;13.50;2.80;;;;;;;;;;5113693;28;20106;-26
2023/07/30 01:08:36;;;;;;;17.30;2.87;;;;;;;;;;5113972;28;20024;-27
2023/07/30 01:11:02;;;;;;;17.73;2.65;;;;;;;;;;5096790;28;20628;-27
2023/07/30 01:13:28;;;;;;;11.23;2.60;;;;;;;;;;5117547;28;20016;-27
2023/07/30 01:15:53;;;;;;;13.90;2.88;;;;;;;;;;5117088;28;20378;-26
2023/07/30 01:18:19;;;;;;;11.90;2.58;;;;;;;;;;5117548;28;20027;-27
2023/07/30 01:20:44;;;;;;;17.10;2.90;;;;;;;;;;5098675;28;20023;-27
2023/07/30 01:23:09;;;;;;;10.38;3.00;;;;;;;;;;5116964;28;20012;-27
2023/07/30 01:25:35;;;;;;;15.53;2.50;;;;;;;;;;5117434;28;20089;-27
2023/07/30 01:28:02;;;;;;;16.60;3.20;;;;;;;;;;5117427;28;20599;-27
2023/07/30 01:30:29;;;;;;;10.85;2.78;;;;;;;;;;5116756;28;20019;-26
2023/07/30 01:32:54;;;;;;;13.57;2.80;;;;;;;;;;5117019;28;20019;-26
2023/07/30 01:35:26;;;;;;;12.45;2.55;;;;;;;;;;5116721;28;20022;-27
2023/07/30 01:37:51;;;;;;;10.32;2.72;;;;;;;;;;5116841;28;20504;-27
2023/07/30 01:40:16;;;;;;;12.18;2.88;;;;;;;;;;5116413;28;20043;-27
2023/07/30 01:42:42;;;;;;;24.07;3.50;;;;;;;;;;5117118;28;20020;-27
2023/07/30 01:45:07;;;;;;;17.65;3.00;;;;;;;;;;5116772;28;20249;-27
2023/07/30 01:47:32;;;;;;;23.20;3.55;;;;;;;;;;5116699;28;20012;-26
2023/07/30 01:49:57;;;;;;;17.55;2.80;;;;;;;;;;5116599;28;20027;-27
2023/07/30 01:52:23;;;;;;;10.80;2.57;;;;;;;;;;5116373;28;20019;-27
2023/07/30 01:54:48;;;;;;;24.58;3.28;;;;;;;;;;5116613;28;20027;-26
2023/07/30 01:57:13;;;;;;;12.55;3.00;;;;;;;;;;5117034;28;20039;-26
2023/07/30 01:59:39;;;;;;;9.18;2.70;;;;;;;;;;5116218;28;20043;-26
2023/07/30 02:02:04;;;;;;;15.77;3.03;;;;;;;;;;5116247;28;20437;-26
2023/07/30 02:04:29;;;;;;;18.08;3.47;;;;;;;;;;5116359;28;20356;-26
2023/07/30 02:06:54;;;;;;;13.00;2.77;;;;;;;;;;5116088;28;20412;-26
2023/07/30 02:09:21;;;;;;;23.35;3.67;;;;;;;;;;5116342;28;20254;-26
2023/07/30 02:11:46;;;;;;;15.93;3.13;;;;;;;;;;5116230;28;20020;-26
2023/07/30 02:14:11;;;;;;;18.23;3.33;;;;;;;;;;5116225;28;20073;-26
2023/07/30 02:16:36;;;;;;;14.95;3.33;;;;;;;;;;5116147;28;20027;-27
2023/07/30 02:19:02;;;;;;;15.93;3.35;;;;;;;;;;5115896;28;20371;-27
2023/07/30 02:21:27;;;;;;;17.85;3.30;;;;;;;;;;5115666;28;20416;-27
2023/07/30 02:23:52;;;;;;;13.38;3.35;;;;;;;;;;5115192;28;20057;-27
2023/07/30 02:26:17;;;;;;;22.30;3.37;;;;;;;;;;5115988;28;20016;-27
2023/07/30 02:28:43;;;;;;;19.70;3.60;;;;;;;;;;5115648;28;20708;-27
2023/07/30 02:31:08;;;;;;;14.52;3.25;;;;;;;;;;5115845;28;20103;-27
2023/07/30 02:33:33;;;;;;;19.57;3.33;;;;;;;;;;5115559;28;20102;-27
2023/07/30 02:35:58;;;;;;;20.92;3.45;;;;;;;;;;5115761;28;20739;-27
2023/07/30 02:38:24;;;;;;;20.07;4.27;;;;;;;;;;5115479;28;20516;-27
2023/07/30 02:40:49;;;;;;;18.40;3.33;;;;;;;;;;5115229;28;20047;-26
2023/07/30 02:43:14;;;;;;;16.57;3.27;;;;;;;;;;5115376;28;20026;-27
2023/07/30 02:45:39;;;;;;;15.77;3.60;;;;;;;;;;5115364;28;20103;-27
2023/07/30 02:48:04;;;;;;;18.20;3.50;;;;;;;;;;5115545;28;20632;-27
2023/07/30 02:50:30;;;;;;;15.27;3.25;;;;;;;;;;5115476;28;20756;-27
2023/07/30 02:52:55;;;;;;;20.00;3.70;;;;;;;;;;5115743;28;20395;-26
2023/07/30 02:55:20;;;;;;;15.83;3.23;;;;;;;;;;5115148;28;20015;-27
2023/07/30 02:57:45;;;;;;;26.43;3.90;;;;;;;;;;5115029;28;20261;-27
2023/07/30 03:00:11;;;;;;;18.77;3.50;;;;;;;;;;5114978;28;20350;-26
2023/07/30 03:02:36;;;;;;;19.05;3.70;;;;;;;;;;5115272;28;20022;-27
2023/07/30 03:05:01;;;;;;;20.93;3.80;;;;;;;;;;5114960;28;20535;-27
2023/07/30 03:07:26;;;;;;;21.55;3.67;;;;;;;;;;5115450;28;20287;-27
2023/07/30 03:09:51;;;;;;;14.95;3.55;;;;;;;;;;5115391;28;20103;-26
2023/07/30 03:12:17;;;;;;;22.50;3.67;;;;;;;;;;5115365;28;20124;-26
2023/07/30 03:14:42;;;;;;;18.20;3.70;;;;;;;;;;5114802;28;20250;-27
2023/07/30 03:17:07;;;;;;;24.67;3.83;;;;;;;;;;5115293;28;20261;-27
2023/07/30 03:19:32;;;;;;;26.23;3.93;;;;;;;;;;5115219;28;20257;-27
2023/07/30 03:21:57;;;;;;;22.77;3.97;;;;;;;;;;5115179;28;20608;-27
2023/07/30 03:24:23;;;;;;;18.50;3.38;;;;;;;;;;5114566;28;20265;-26
2023/07/30 03:26:48;;;;;;;21.88;3.88;;;;;;;;;;5114868;28;20098;-27
2023/07/30 03:29:14;;;;;;;21.52;3.72;;;;;;;;;;5114556;28;20012;-27
2023/07/30 03:31:39;;;;;;;24.20;3.90;;;;;;;;;;5114413;28;20374;-27
2023/07/30 03:34:04;;;;;;;17.80;3.50;;;;;;;;;;5095194;28;20020;-27
2023/07/30 03:36:29;;;;;;;19.43;4.00;;;;;;;;;;5114693;28;20292;-27
2023/07/30 03:38:55;;;;;;;26.80;3.80;;;;;;;;;;5114420;28;20774;-27
2023/07/30 03:41:20;;;;;;;26.95;4.18;;;;;;;;;;5114281;28;20284;-26
2023/07/30 03:43:45;;;;;;;26.95;4.10;;;;;;;;;;5114147;28;20015;-26
2023/07/30 03:46:10;;;;;;;23.42;4.20;;;;;;;;;;5115040;28;20028;-27
2023/07/30 03:48:36;;;;;;;25.35;4.03;;;;;;;;;;5114735;28;20033;-27
2023/07/30 03:51:02;;;;;;;30.80;4.05;;;;;;;;;;5114403;28;20126;-27
2023/07/30 03:53:27;;;;;;;25.10;4.15;;;;;;;;;;5114096;28;20024;-27
2023/07/30 03:55:53;;;;;;;28.45;4.50;;;;;;;;;;5114083;28;20033;-28
2023/07/30 03:58:18;;;;;;;29.20;4.32;;;;;;;;;;5114031;28;20020;-27
2023/07/30 04:00:44;;;;;;;24.33;4.37;;;;;;;;;;5114520;28;20020;-27
2023/07/30 04:03:09;;;;;;;29.00;4.65;;;;;;;;;;5113929;28;20040;-27
2023/07/30 04:05:34;;;;;;;22.97;4.47;;;;;;;;;;5114566;28;20051;-27
2023/07/30 04:08:00;;;;;;;24.47;4.03;;;;;;;;;;5115109;28;20260;-27
2023/07/30 04:10:25;;;;;;;21.75;4.40;;;;;;;;;;5114207;28;20253;-27
2023/07/30 04:12:50;;;;;;;25.57;4.43;;;;;;;;;;5113899;28;20518;-27
2023/07/30 04:15:16;;;;;;;26.80;4.23;;;;;;;;;;5113886;28;20252;-32
2023/07/30 04:17:41;;;;;;;25.45;5.07;;;;;;;;;;5114118;28;20261;-27
2023/07/30 04:20:07;;;;;;;29.80;5.05;;;;;;;;;;5113740;28;20461;-27
2023/07/30 04:22:32;;;;;;;32.65;4.85;;;;;;;;;;5114011;28;20020;-28
2023/07/30 04:24:58;;;;;;;27.47;4.30;;;;;;;;;;5114069;28;20040;-26
2023/07/30 04:27:23;;;;;;;22.53;4.50;;;;;;;;;;5113736;28;20292;-26
2023/07/30 04:29:48;;;;;;;23.33;4.33;;;;;;;;;;5114268;28;20285;-26
2023/07/30 04:32:14;;;;;;;25.63;4.60;;;;;;;;;;5114283;28;20253;-27
2023/07/30 04:34:39;;;;;;;32.08;5.38;;;;;;;;;;5113907;28;20716;-26
2023/07/30 04:37:04;;;;;;;28.05;4.60;;;;;;;;;;5095457;28;20015;-26
2023/07/30 04:39:30;;;;;;;29.52;5.30;;;;;;;;;;5114000;28;20035;-26
2023/07/30 04:41:55;;;;;;;28.50;5.13;;;;;;;;;;5113514;28;20114;-26
2023/07/30 04:44:20;;;;;;;25.95;4.65;;;;;;;;;;5113889;28;20080;-27
2023/07/30 04:46:45;;;;;;;26.33;4.40;;;;;;;;;;5117225;28;20016;-27
2023/07/30 04:49:11;;;;;;;27.90;5.13;;;;;;;;;;5117875;28;20276;-26
2023/07/30 04:51:36;;;;;;;33.33;5.50;;;;;;;;;;5117536;28;20012;-26
2023/07/30 04:54:01;;;;;;;34.30;5.00;;;;;;;;;;5117782;28;20250;-27
2023/07/30 04:56:26;;;;;;;26.38;4.55;;;;;;;;;;5099274;28;20016;-27
2023/07/30 04:58:52;;;;;;;30.23;5.65;;;;;;;;;;5117393;28;20415;-27
2023/07/30 05:01:17;;;;;;;24.40;5.05;;;;;;;;;;5117589;28;20028;-27
2023/07/30 05:03:43;;;;;;;26.30;4.83;;;;;;;;;;5117251;28;20055;-27
2023/07/30 05:06:08;;;;;;;23.33;4.83;;;;;;;;;;5117873;28;20245;-27
2023/07/30 05:08:33;;;;;;;27.10;5.13;;;;;;;;;;5117257;28;20674;-26
2023/07/30 05:10:58;;;;;;;35.88;5.32;;;;;;;;;;5117439;28;20011;-27
2023/07/30 05:13:23;;;;;;;23.77;5.20;;;;;;;;;;5117372;28;20476;-27
2023/07/30 05:15:49;;;;;;;33.90;6.20;;;;;;;;;;5117040;28;20253;-25
2023/07/30 05:18:14;;;;;;;30.90;5.33;;;;;;;;;;5117008;28;20257;-26
2023/07/30 05:20:39;;;;;;;27.33;5.17;;;;;;;;;;5117252;28;20334;-26
2023/07/30 05:23:06;;;;;;;28.38;5.18;;;;;;;;;;5117017;28;20695;-27
2023/07/30 05:25:31;;;;;;;35.03;5.43;;;;;;;;;;5117064;28;20020;-26
2023/07/30 05:27:57;;;;;;;24.67;5.13;;;;;;;;;;5117126;28;20018;-26
2023/07/30 05:30:22;;;;;;;26.97;4.83;;;;;;;;;;5117292;28;20305;-26
2023/07/30 05:32:47;;;;;;;32.60;5.47;;;;;;;;;;5116804;28;20011;-26
2023/07/30 05:35:12;;;;;;;33.40;5.13;;;;;;;;;;5116960;28;20257;-26
2023/07/30 05:37:37;;;;;;;23.70;5.00;;;;;;;;;;5117240;28;20249;-26
2023/07/30 05:40:03;;;;;;;29.50;5.40;;;;;;;;;;5116452;28;20493;-27
2023/07/30 05:42:28;;;;;;;27.35;5.43;;;;;;;;;;5116454;28;20285;-27
2023/07/30 05:44:53;;;;;;;26.57;5.53;;;;;;;;;;5117129;28;20020;-26
2023/07/30 05:47:19;;;;;;;26.37;5.30;;;;;;;;;;5116771;28;20250;-26
2023/07/30 05:49:44;;;;;;;34.50;5.40;;;;;;;;;;5116396;28;20258;-27
2023/07/30 05:52:09;;;;;;;28.55;4.82;;;;;;;;;;5116637;28;20011;-27
2023/07/30 05:54:34;;;;;;;25.60;5.30;;;;;;;;;;5116378;28;20019;-26
2023/07/30 05:56:59;;;;;;;29.30;5.17;;;;;;;;;;5115442;28;20258;-27
2023/07/30 05:59:24;;;;;;;28.37;5.20;;;;;;;;;;5116254;28;20589;-27
2023/07/30 06:01:50;;;;;;;27.77;5.57;;;;;;;;;;5116363;28;20812;-27
2023/07/30 06:04:15;;;;;;;34.03;5.50;;;;;;;;;;5116446;28;20268;-27
2023/07/30 06:06:40;;;;;;;31.03;5.57;;;;;;;;;;5116105;28;20257;-26
2023/07/30 06:09:05;;;;;;;28.50;6.03;;;;;;;;;;5115996;28;20257;-27
2023/07/30 06:11:31;;;;;;;29.42;5.75;;;;;;;;;;5116617;28;20033;-27
2023/07/30 06:13:56;;;;;;;22.63;5.03;;;;;;;;;;5115922;28;20019;-27
2023/07/30 06:16:21;;;;;;;25.60;4.73;;;;;;;;;;5115963;28;20028;-27
2023/07/30 06:18:47;;;;;;;22.60;5.43;;;;;;;;;;5097516;28;20265;-27
2023/07/30 06:21:12;;;;;;;23.85;4.70;;;;;;;;;;5115685;28;20024;-27
2023/07/30 06:23:37;;;;;;;33.53;5.93;;;;;;;;;;5115869;28;20024;-27
2023/07/30 06:26:02;;;;;;;31.07;5.03;;;;;;;;;;5115679;28;20250;-27
2023/07/30 06:28:28;;;;;;;23.40;5.80;;;;;;;;;;5115797;28;20611;-27
2023/07/30 06:30:53;;;;;;;29.80;4.95;;;;;;;;;;5097496;28;20085;-27
2023/07/30 06:33:18;;;;;;;26.13;4.75;;;;;;;;;;5097416;28;20030;-27
2023/07/30 06:35:43;;;;;;;27.73;5.20;;;;;;;;;;5115792;28;20052;-27
2023/07/30 06:38:09;;;;;;;30.93;5.23;;;;;;;;;;5115740;28;20292;-27
2023/07/30 06:40:34;;;;;;;23.58;4.93;;;;;;;;;;5116006;28;20378;-27
2023/07/30 06:42:59;;;;;;;22.73;5.38;;;;;;;;;;5115673;28;20095;-26
2023/07/30 06:45:24;;;;;;;24.90;5.05;;;;;;;;;;5115337;28;20018;-27
2023/07/30 06:47:49;;;;;;;22.03;4.50;;;;;;;;;;5115366;28;20090;-27
2023/07/30 06:50:15;;;;;;;28.98;5.00;;;;;;;;;;5097006;28;20273;-27
2023/07/30 06:52:40;;;;;;;17.63;4.18;;;;;;;;;;5115561;28;20019;-28
2023/07/30 06:55:05;;;;;;;19.20;4.00;;;;;;;;;;5115195;28;20373;-27
2023/07/30 06:57:30;;;;;;;28.98;4.20;;;;;;;;;;5115367;28;20020;-27
2023/07/30 06:59:56;;;;;;;23.23;4.30;;;;;;;;;;5115129;28;20426;-26
2023/07/30 07:02:21;;;;;;;19.75;4.05;;;;;;;;;;5115477;28;20810;-27
2023/07/30 07:04:46;;;;;;;18.83;4.00;;;;;;;;;;5115068;28;20027;-26
2023/07/30 07:07:12;;;;;;;24.88;4.22;;;;;;;;;;5115552;28;20119;-27
2023/07/30 07:09:37;;;;;;;25.30;4.38;;;;;;;;;;5096478;28;20031;-27
2023/07/30 07:12:03;;;;;;;23.20;4.07;;;;;;;;;;5114866;28;20031;-27
2023/07/30 07:14:28;;;;;;;20.27;3.83;;;;;;;;;;5115061;28;20269;-28
2023/07/30 07:16:54;;;;;;;26.00;4.20;;;;;;;;;;5114666;28;20480;-27
2023/07/30 07:19:19;;;;;;;22.60;4.00;;;;;;;;;;5114990;28;20026;-27
2023/07/30 07:21:45;;;;;;;23.80;4.20;;;;;;;;;;5114736;28;20024;-27
2023/07/30 07:24:10;;;;;;;19.30;3.87;;;;;;;;;;5114867;28;20658;-27
2023/07/30 07:26:35;;;;;;;17.37;3.57;;;;;;;;;;5115083;28;20047;-27
2023/07/30 07:29:00;;;;;;;22.00;3.83;;;;;;;;;;5114626;28;20024;-27
2023/07/30 07:31:25;;;;;;;20.35;3.58;;;;;;;;;;5114746;28;20015;-27
2023/07/30 07:33:51;;;;;;;13.60;3.25;;;;;;;;;;5114654;28;20023;-27
2023/07/30 07:36:16;;;;;;;24.83;3.45;;;;;;;;;;5114479;28;20058;-27
2023/07/30 07:38:42;;;;;;;21.20;3.70;;;;;;;;;;5114638;28;20058;-27
2023/07/30 07:41:07;;;;;;;28.17;4.20;;;;;;;;;;5114534;28;20478;-27
2023/07/30 07:43:32;;;;;;;21.87;3.67;;;;;;;;;;5114796;28;20020;-27
2023/07/30 07:45:57;;;;;;;27.25;3.85;;;;;;;;;;5114449;28;20268;-27
2023/07/30 07:48:23;;;;;;;20.80;3.67;;;;;;;;;;5114239;28;20007;-27
2023/07/30 07:50:48;;;;;;;21.60;3.80;;;;;;;;;;5114447;28;20747;-27
2023/07/30 07:53:13;;;;;;;19.20;3.80;;;;;;;;;;5114578;28;20412;-27
2023/07/30 07:55:39;;;;;;;25.93;4.07;;;;;;;;;;5114111;28;20489;-27
2023/07/30 07:58:04;;;;;;;29.60;4.10;;;;;;;;;;5114065;28;20274;-27
2023/07/30 08:00:29;;;;;;;22.23;4.10;;;;;;;;;;5114218;28;20298;-27
2023/07/30 08:02:54;;;;;;;20.60;3.53;;;;;;;;;;5113938;28;20378;-27
2023/07/30 08:05:19;;;;;;;19.73;3.40;;;;;;;;;;5113908;28;20268;-27
2023/07/30 08:07:48;;;;;;;21.88;3.58;;;;;;;;;;5114015;28;20103;-27
2023/07/30 08:10:13;;;;;;;18.75;4.03;;;;;;;;;;5113749;28;20056;-27
2023/07/30 08:12:38;;;;;;;17.15;3.67;;;;;;;;;;5113647;28;20028;-25
2023/07/30 08:15:03;;;;;;;21.57;3.80;;;;;;;;;;5114342;28;20084;-26
2023/07/30 08:17:29;;;;;;;19.52;3.50;;;;;;;;;;5113587;28;20633;-25
2023/07/30 08:19:54;;;;;;;22.13;3.70;;;;;;;;;;5114193;28;20018;-26
2023/07/30 08:22:19;;;;;;;22.42;3.60;;;;;;;;;;5118417;28;20026;-26
2023/07/30 08:24:44;;;;;;;15.07;3.30;;;;;;;;;;5118432;28;20016;-26
2023/07/30 08:27:09;;;;;;;19.70;4.47;;;;;;;;;;5117850;28;20064;-26
2023/07/30 08:29:35;;;;;;;15.60;3.87;;;;;;;;;;5117988;28;20026;-26
2023/07/30 08:32:00;;;;;;;22.00;3.80;;;;;;;;;;5117701;28;20467;-26
2023/07/30 08:34:26;;;;;;;17.73;3.35;;;;;;;;;;5118440;28;20019;-26
2023/07/30 08:36:51;;;;;;;22.40;4.47;;;;;;;;;;5117641;28;20066;-28
2023/07/30 08:39:16;;;;;;;18.97;2.97;;;;;;;;;;5117507;28;20092;-27
2023/07/30 08:41:41;;;;;;;16.88;3.63;;;;;;;;;;5117568;28;20027;-27
2023/07/30 08:44:06;;;;;;;12.82;2.83;;;;;;;;;;5118238;28;20504;-27
2023/07/30 08:46:32;;;;;;;15.90;3.47;;;;;;;;;;5118260;28;20020;-27
2023/07/30 08:48:57;;;;;;;13.90;2.88;;;;;;;;;;5118348;28;20008;-27
2023/07/30 08:51:23;;;;;;;10.90;2.63;;;;;;;;;;5117524;28;20020;-27
2023/07/30 08:53:48;;;;;;;18.75;3.42;;;;;;;;;;5117391;28;20256;-27
2023/07/30 08:56:13;;;;;;;22.27;3.05;;;;;;;;;;5116621;28;20369;-27
2023/07/30 08:58:39;;;;;;;13.50;3.30;;;;;;;;;;5117316;28;20026;-27
2023/07/30 09:01:08;;;;;;;13.27;2.60;;;;;;;;;;5117086;28;20289;-27
2023/07/30 09:03:35;;;;;;;14.25;3.13;;;;;;;;;;5117215;28;20058;-27
2023/07/30 09:06:01;;;;;;;14.05;2.88;;;;;;;;;;5099168;28;20382;-27
2023/07/30 09:08:26;;;;;;;9.38;2.50;;;;;;;;;;5117203;28;20020;-27
2023/07/30 09:10:52;;;;;;;14.73;2.50;;;;;;;;;;5117240;28;20015;-27
2023/07/30 09:13:21;;;;;;;14.00;2.53;;;;;;;;;;5117392;28;20012;-27
2023/07/30 09:15:48;;;;;;;14.48;2.42;;;;;;;;;;5117334;28;20042;-27
2023/07/30 09:18:16;;;;;;;10.27;1.95;;;;;;;;;;5116982;28;20015;-27
2023/07/30 09:20:41;;;;;;;10.40;2.28;;;;;;;;;;5116913;28;20020;-27
2023/07/30 09:23:07;;;;;;;9.93;2.25;;;;;;;;;;5116932;28;20057;-27
2023/07/30 09:25:33;;;;;;;11.73;2.28;;;;;;;;;;5117208;28;20099;-27
2023/07/30 09:27:59;;;;;;;7.43;2.10;;;;;;;;;;5117052;28;20052;-27
2023/07/30 09:30:24;;;;;;;13.93;2.45;;;;;;;;;;5116946;28;20400;-27
2023/07/30 09:32:54;;;;;;;11.68;1.90;;;;;;;;;;5116876;28;20019;-27
2023/07/30 09:35:19;;;;;;;11.02;2.47;;;;;;;;;;5116690;28;20015;-27
2023/07/30 09:37:45;;;;;;;9.95;2.20;;;;;;;;;;5116801;28;20012;-27
2023/07/30 09:40:12;;;;;;;9.88;2.28;;;;;;;;;;5116437;28;20032;-27
2023/07/30 09:42:39;;;;;;;13.00;2.22;;;;;;;;;;5116482;28;20035;-27
2023/07/30 09:45:06;;;;;;;8.60;1.90;;;;;;;;;;5116359;28;20020;-27
2023/07/30 09:47:33;;;;;;;9.43;2.22;;;;;;;;;;5116223;28;20050;-27
2023/07/30 09:49:59;;;;;;;14.73;2.55;;;;;;;;;;5116544;28;20031;-27
2023/07/30 09:52:24;;;;;;;13.87;2.67;;;;;;;;;;5097900;28;20390;-27
2023/07/30 09:54:52;;;;;;;9.67;2.40;;;;;;;;;;5116790;28;20656;-27
2023/07/30 09:57:17;;;;;;;7.63;1.98;;;;;;;;;;5116338;28;20330;-27
2023/07/30 09:59:42;;;;;;;11.63;2.40;;;;;;;;;;5116204;28;20015;-27
2023/07/30 10:02:08;;;;;;;10.70;1.90;;;;;;;;;;5097673;28;20072;-27
2023/07/30 10:04:35;;;;;;;12.65;2.72;;;;;;;;;;5115978;28;20012;-27
2023/07/30 10:07:03;;;;;;;11.25;2.50;;;;;;;;;;5114142;28;20691;-27
2023/07/30 10:09:30;;;;;;;10.90;2.10;;;;;;;;;;5115405;28;20370;-27
2023/07/30 10:11:55;;;;;;;7.30;1.85;;;;;;;;;;5115718;28;20026;-27
2023/07/30 10:14:22;;;;;;;7.53;1.83;;;;;;;;;;5115870;28;20023;-27
2023/07/30 10:16:54;;;;;;;13.32;2.20;;;;;;;;;;5115776;28;20724;-27
2023/07/30 10:19:23;;;;;;;11.27;1.90;;;;;;;;;;5116081;28;20098;-27
2023/07/30 10:21:48;;;;;;;10.73;2.13;;;;;;;;;;5115512;28;20106;-27
2023/07/30 10:24:14;;;;;;;6.28;1.45;;;;;;;;;;5115919;28;20144;-27
2023/07/30 10:26:39;;;;;;;6.20;1.77;;;;;;;;;;5115585;28;20011;-27
2023/07/30 10:29:11;;;;;;;8.80;1.80;;;;;;;;;;5115716;28;20023;-27
2023/07/30 10:31:40;;;;;;;17.03;2.10;;;;;;;;;;5115788;28;20262;-27
2023/07/30 10:34:12;;;;;;;9.52;1.90;;;;;;;;;;5115393;28;20348;-27
2023/07/30 10:36:44;;;;;;;11.00;1.93;;;;;;;;;;5115373;28;20161;-27
2023/07/30 10:39:16;;;;;;;9.05;1.80;;;;;;;;;;5115359;28;20036;-27
2023/07/30 10:41:45;;;;;;;14.48;3.25;;;;;;;;;;5096978;28;20050;-27
2023/07/30 10:44:37;;;;;;;8.20;2.10;;;;;;;;;;5115009;28;20038;-27
2023/07/30 10:47:03;;;;;;;10.13;2.10;;;;;;;;;;5110909;28;20066;-27
2023/07/30 10:49:28;;;;;;;8.25;1.92;;;;;;;;;;5115448;28;20343;-27
2023/07/30 10:51:59;;;;;;;7.25;1.85;;;;;;;;;;5115673;28;20098;-27
2023/07/30 10:54:25;;;;;;;7.85;2.10;;;;;;;;;;5115786;28;20020;-27
2023/07/30 10:56:51;;;;;;;16.77;2.42;;;;;;;;;;5115233;28;20157;-28
2023/07/30 10:59:17;;;;;;;8.02;1.83;;;;;;;;;;5114987;28;20038;-27
2023/07/30 11:01:43;;;;;;;8.80;2.00;;;;;;;;;;5114763;28;20366;-27
2023/07/30 11:04:10;;;;;;;9.05;1.80;;;;;;;;;;5114887;28;20031;-28
2023/07/30 11:06:35;;;;;;;9.63;1.80;;;;;;;;;;5114753;28;20072;-27
2023/07/30 11:09:01;;;;;;;10.95;2.42;;;;;;;;;;5115042;28;20023;-27
2023/07/30 11:11:26;;;;;;;13.63;1.90;;;;;;;;;;5114732;28;20016;-28
2023/07/30 11:13:51;;;;;;;14.23;2.20;;;;;;;;;;5114948;28;20264;-27
2023/07/30 11:16:16;;;;;;;9.57;2.20;;;;;;;;;;5114613;28;20378;-27
2023/07/30 11:18:42;;;;;;;10.23;1.98;;;;;;;;;;5115296;28;20037;-27
2023/07/30 11:21:08;;;;;;;7.50;2.22;;;;;;;;;;5114502;28;20024;-27
2023/07/30 11:23:34;;;;;;;10.02;2.22;;;;;;;;;;5114746;28;20019;-27
2023/07/30 11:26:03;;;;;;;17.10;2.15;;;;;;;;;;5114337;28;20020;-27
2023/07/30 11:28:31;;;;;;;6.50;2.08;;;;;;;;;;5114663;28;20012;-28
2023/07/30 11:31:00;;;;;;;13.65;2.28;;;;;;;;;;5114246;28;20023;-27
2023/07/30 11:33:26;;;;;;;7.32;1.48;;;;;;;;;;5114472;28;20067;-27
2023/07/30 11:35:51;;;;;;;8.05;1.83;;;;;;;;;;5114336;28;20103;-28
2023/07/30 11:38:19;;;;;;;10.17;2.07;;;;;;;;;;5114219;28;20024;-27
2023/07/30 11:40:44;;;;;;;8.40;1.58;;;;;;;;;;5114603;28;20208;-27
2023/07/30 11:43:10;;;;;;;11.35;2.00;;;;;;;;;;5114399;28;20082;-28
2023/07/30 11:45:36;;;;;;;8.55;1.80;;;;;;;;;;5114374;28;20023;-27
2023/07/30 11:48:08;;;;;;;11.45;1.70;;;;;;;;;;5114103;28;20449;-28
2023/07/30 11:50:50;;;;;;;10.52;2.15;;;;;;;;;;5114494;28;20098;-27
2023/07/30 11:53:15;;;;;;;10.10;1.83;;;;;;;;;;5114797;28;20492;-27
2023/07/30 11:55:42;;;;;;;7.53;1.80;;;;;;;;;;5113073;28;20016;-27
2023/07/30 11:58:09;;;;;;;11.48;2.20;;;;;;;;;;5112691;28;20027;-27
2023/07/30 12:00:34;;;;;;;8.68;2.10;;;;;;;;;;5114020;28;20023;-27
2023/07/30 12:03:02;;;;;;;13.30;2.10;;;;;;;;;;5113795;28;20012;-27
2023/07/30 12:05:48;;;;;;;10.52;1.75;;;;;;;;;;5114164;28;20020;-28
2023/07/30 12:08:16;;;;;;;8.40;1.40;;;;;;;;;;5113929;28;20045;-28
2023/07/30 12:10:44;;;;;;;9.05;1.75;;;;;;;;;;5113733;28;20022;-32
2023/07/30 12:13:15;;;;;;;10.05;2.08;;;;;;;;;;5095574;28;20011;-27
2023/07/30 12:15:42;;;;;;;5.05;1.27;;;;;;;;;;5113759;28;20015;-27
2023/07/30 12:18:08;;;;;;;6.32;1.50;;;;;;;;;;5113587;28;20043;-27
2023/07/30 12:20:33;;;;;;;6.40;1.73;;;;;;;;;;5113617;28;20024;-27
2023/07/30 12:22:58;;;;;;;10.77;1.90;;;;;;;;;;5113834;28;20016;-27
2023/07/30 12:25:23;;;;;;;8.53;1.73;;;;;;;;;;5113603;28;20040;-28
2023/07/30 12:27:49;;;;;;;6.55;1.40;;;;;;;;;;5113637;28;20483;-27
2023/07/30 12:30:14;;;;;;;6.27;1.80;;;;;;;;;;5113682;28;20051;-28
2023/07/30 12:32:39;;;;;;;6.73;1.73;;;;;;;;;;5114200;28;20043;-28
2023/07/30 12:35:04;;;;;;;9.30;1.97;;;;;;;;;;5113559;28;20031;-27
2023/07/30 12:37:29;;;;;;;9.48;1.80;;;;;;;;;;5113832;28;20035;-27
2023/07/30 12:39:55;;;;;;;8.87;1.70;;;;;;;;;;5113308;28;20109;-27
2023/07/30 12:42:20;;;;;;;11.37;1.90;;;;;;;;;;5113948;28;20364;-27
2023/07/30 12:44:45;;;;;;;9.27;1.60;;;;;;;;;;5113611;28;20452;-27
2023/07/30 12:47:10;;;;;;;12.23;1.67;;;;;;;;;;5113715;28;20011;-27
2023/07/30 12:49:36;;;;;;;6.73;1.50;;;;;;;;;;5113472;28;20375;-27
2023/07/30 12:52:01;;;;;;;10.02;1.80;;;;;;;;;;5113418;28;20958;-27
2023/07/30 12:54:26;;;;;;;4.77;1.13;;;;;;;;;;5113957;28;20102;-27
2023/07/30 12:56:51;;;;;;;6.43;1.50;;;;;;;;;;5113655;28;20378;-27
2023/07/30 12:59:16;;;;;;;5.93;1.93;;;;;;;;;;5113354;28;20724;-27
2023/07/30 13:01:41;;;;;;;9.00;1.40;;;;;;;;;;5113717;28;20024;-27
2023/07/30 13:04:07;;;;;;;8.33;1.70;;;;;;;;;;5113572;28;20016;-27
2023/07/30 13:06:32;;;;;;;5.78;1.10;;;;;;;;;;5114423;28;20012;-27
2023/07/30 13:08:57;;;;;;;4.40;1.10;;;;;;;;;;5117680;28;20054;-27
2023/07/30 13:11:22;;;;;;;7.20;1.20;;;;;;;;;;5117162;28;20442;-28
2023/07/30 13:13:48;;;;;;;8.60;1.55;;;;;;;;;;5117636;28;20023;-26
2023/07/30 13:16:13;;;;;;;6.50;1.47;;;;;;;;;;5117544;28;20034;-27
2023/07/30 13:18:38;;;;;;;9.67;1.67;;;;;;;;;;5125588;28;20039;-30
2023/07/30 13:21:04;;;;;;;7.22;1.83;;;;;;;;;;5117528;28;20370;-32
2023/07/30 13:23:30;;;;;;;7.03;1.40;;;;;;;;;;5117004;28;20451;-32
2023/07/30 13:25:55;;;;;;;6.47;1.65;;;;;;;;;;5117245;28;20039;-31
2023/07/30 13:28:20;;;;;;;9.70;1.77;;;;;;;;;;5116841;28;20011;-32
2023/07/30 13:30:46;;;;;;;9.87;1.80;;;;;;;;;;5116789;28;20062;-31
2023/07/30 13:33:11;;;;;;;6.32;1.30;;;;;;;;;;5117230;28;20359;-31
2023/07/30 13:35:36;;;;;;;8.00;1.43;;;;;;;;;;5117217;28;20019;-31
2023/07/30 13:38:01;;;;;;;6.63;1.30;;;;;;;;;;5116515;28;20269;-32
2023/07/30 13:40:27;;;;;;;8.85;1.88;;;;;;;;;;5116346;28;20277;-31
2023/07/30 13:42:52;;;;;;;9.87;1.80;;;;;;;;;;5116496;28;20421;-31
2023/07/30 13:45:17;;;;;;;6.17;1.70;;;;;;;;;;5116484;28;20015;-30
2023/07/30 13:47:42;;;;;;;5.83;1.73;;;;;;;;;;5116429;28;20023;-31
2023/07/30 13:50:07;;;;;;;8.97;1.73;;;;;;;;;;5116317;28;20098;-31
2023/07/30 13:52:33;;;;;;;6.45;1.30;;;;;;;;;;5116226;28;20344;-31
2023/07/30 13:54:58;;;;;;;8.73;1.87;;;;;;;;;;5116576;28;20023;-31
2023/07/30 13:57:24;;;;;;;6.20;1.40;;;;;;;;;;5116270;28;20458;-31
2023/07/30 13:59:49;;;;;;;10.90;1.90;;;;;;;;;;5116414;28;20011;-31
2023/07/30 14:02:14;;;;;;;5.53;1.70;;;;;;;;;;5116168;28;20386;-30
2023/07/30 14:04:39;;;;;;;10.07;1.53;;;;;;;;;;5116696;28;20098;-31
2023/07/30 14:07:04;;;;;;;7.03;1.90;;;;;;;;;;5116567;28;20289;-32
2023/07/30 14:09:33;;;;;;;10.32;1.80;;;;;;;;;;5116654;28;20342;-32
2023/07/30 14:11:58;;;;;;;9.13;1.80;;;;;;;;;;5116066;28;20099;-32
2023/07/30 14:14:23;;;;;;;9.75;1.75;;;;;;;;;;5116378;28;20058;-32
2023/07/30 14:16:49;;;;;;;8.43;2.10;;;;;;;;;;5116370;28;20412;-30
2023/07/30 14:19:14;;;;;;;6.20;1.90;;;;;;;;;;5115216;28;20027;-33
2023/07/30 14:21:40;;;;;;;7.63;1.92;;;;;;;;;;5097393;28;20092;-32
2023/07/30 14:24:05;;;;;;;10.32;2.28;;;;;;;;;;5115956;28;20084;-32